Time;durP1;ratioP1;P1;durP2;ratioP2;P2;SDS_P1;SDS_P2;PMS_P1;PMS_P2;Temp;Humidity;BMP_temperature;BMP_pressure;BME280_temperature;BME280_humidity;BME280_pressure;Samples;Min_cycle;Max_cycle;Signal;HPM_P1;HPM_P2
2020/12/17 00:01:53;;;;;;;37.57;20.87;;;8.50;99.90;;;;;;5003924;28;20172;-46
2020/12/17 00:04:18;;;;;;;39.00;21.47;;;8.50;99.90;;;;;;4980761;28;20221;-45
2020/12/17 00:06:44;;;;;;;43.20;20.63;;;8.50;99.90;;;;;;4990278;28;20207;-45
2020/12/17 00:09:09;;;;;;;37.33;22.37;;;8.50;99.90;;;;;;4980038;28;20204;-46
2020/12/17 00:11:35;;;;;;;39.50;21.50;;;8.40;99.90;;;;;;4983761;28;20587;-44
2020/12/17 00:14:00;;;;;;;39.83;21.80;;;8.40;99.90;;;;;;4981162;28;20204;-45
2020/12/17 00:16:26;;;;;;;37.27;21.97;;;8.40;99.90;;;;;;4982357;28;20205;-43
2020/12/17 00:18:51;;;;;;;39.73;21.93;;;8.40;99.90;;;;;;4977396;28;20208;-43
2020/12/17 00:21:20;;;;;;;38.70;22.37;;;8.40;99.90;;;;;;4991622;28;20169;-44
2020/12/17 00:23:45;;;;;;;39.53;21.10;;;8.40;99.90;;;;;;5003592;28;20220;-43
2020/12/17 00:26:12;;;;;;;38.90;21.50;;;8.30;99.90;;;;;;4990221;28;20598;-45
2020/12/17 00:28:38;;;;;;;37.40;20.70;;;8.30;99.90;;;;;;4985207;28;20196;-42
2020/12/17 00:31:03;;;;;;;36.13;21.60;;;8.30;99.90;;;;;;4995064;28;20197;-44
2020/12/17 00:33:29;;;;;;;35.23;19.57;;;8.20;99.90;;;;;;4976287;28;20223;-45
2020/12/17 00:35:55;;;;;;;38.93;20.97;;;8.20;99.90;;;;;;4996504;28;20585;-44
2020/12/17 00:38:20;;;;;;;39.83;21.93;;;8.20;99.90;;;;;;4981894;28;20181;-42
2020/12/17 00:40:46;;;;;;;38.37;21.83;;;8.20;99.90;;;;;;4988899;28;21086;-42
2020/12/17 00:43:11;;;;;;;40.87;22.00;;;8.10;99.90;;;;;;4983227;28;20170;-42
2020/12/17 00:45:36;;;;;;;39.23;21.60;;;8.10;99.90;;;;;;4979654;28;20232;-48
2020/12/17 00:48:02;;;;;;;40.87;21.13;;;8.10;99.90;;;;;;4983114;28;20177;-44
2020/12/17 00:50:28;;;;;;;37.80;20.17;;;8.10;99.90;;;;;;4974472;28;20716;-42
2020/12/17 00:52:53;;;;;;;39.70;21.07;;;8.00;99.90;;;;;;4987117;28;20177;-48
2020/12/17 00:55:19;;;;;;;37.50;21.60;;;8.00;99.90;;;;;;4982492;28;20201;-45
2020/12/17 00:57:44;;;;;;;41.53;21.30;;;8.00;99.90;;;;;;4993967;28;20182;-45
2020/12/17 01:00:10;;;;;;;39.33;22.10;;;8.00;99.90;;;;;;5000681;28;20212;-45
2020/12/17 01:02:35;;;;;;;36.27;21.20;;;8.00;99.90;;;;;;4999309;28;20796;-44
2020/12/17 01:05:02;;;;;;;37.83;20.60;;;8.00;99.90;;;;;;4983895;28;20197;-44
2020/12/17 01:07:27;;;;;;;38.97;21.40;;;8.00;99.90;;;;;;4991365;28;20208;-42
2020/12/17 01:09:53;;;;;;;37.20;20.77;;;8.00;99.90;;;;;;5002678;28;20216;-46
2020/12/17 01:12:18;;;;;;;39.37;21.30;;;8.00;99.90;;;;;;5001534;28;20181;-42
2020/12/17 01:14:44;;;;;;;34.10;19.50;;;8.00;99.90;;;;;;5000631;28;20197;-44
2020/12/17 01:17:09;;;;;;;39.83;19.83;;;8.00;99.90;;;;;;5003338;28;20238;-47
2020/12/17 01:19:35;;;;;;;36.77;20.50;;;7.90;99.90;;;;;;4981647;28;20263;-43
2020/12/17 01:22:01;;;;;;;32.50;19.80;;;7.90;99.90;;;;;;4994696;28;20193;-43
2020/12/17 01:24:27;;;;;;;36.37;19.60;;;7.90;99.90;;;;;;4981156;28;20205;-42
2020/12/17 01:26:54;;;;;;;35.23;19.37;;;7.90;99.90;;;;;;4997562;28;20630;-46
2020/12/17 01:29:20;;;;;;;35.40;20.37;;;7.80;99.90;;;;;;4996725;28;20762;-42
2020/12/17 01:31:45;;;;;;;36.63;20.57;;;7.80;99.90;;;;;;5004271;28;20173;-43
2020/12/17 01:34:11;;;;;;;37.30;20.33;;;7.80;99.90;;;;;;5006741;28;20703;-44
2020/12/17 01:36:36;;;;;;;35.60;20.47;;;7.80;99.90;;;;;;4982826;28;20192;-45
2020/12/17 01:39:02;;;;;;;38.00;20.37;;;7.70;99.90;;;;;;4994960;28;20280;-43
2020/12/17 01:41:28;;;;;;;39.10;20.30;;;7.70;99.90;;;;;;4983092;28;20176;-44
2020/12/17 01:43:59;;;;;;;38.30;20.27;;;7.80;99.90;;;;;;4986197;28;20667;-43
2020/12/17 01:46:24;;;;;;;36.57;20.53;;;7.70;99.90;;;;;;4983316;28;20177;-44
2020/12/17 01:48:50;;;;;;;34.37;18.30;;;7.70;99.90;;;;;;4985610;28;20860;-44
2020/12/17 01:51:15;;;;;;;37.33;19.17;;;7.70;99.90;;;;;;4982074;28;20182;-42
2020/12/17 01:53:41;;;;;;;33.53;19.10;;;7.70;99.90;;;;;;4982134;28;20225;-43
2020/12/17 01:56:16;;;;;;;37.20;20.67;;;7.70;99.90;;;;;;5003081;28;20272;-45
2020/12/17 01:58:48;;;;;;;38.07;19.73;;;7.70;99.90;;;;;;4995028;28;20210;-50
2020/12/17 02:01:16;;;;;;;39.57;19.47;;;7.70;99.90;;;;;;5005311;28;20260;-42
2020/12/17 02:03:41;;;;;;;38.93;19.93;;;7.70;99.90;;;;;;5002998;28;20836;-42
2020/12/17 02:06:08;;;;;;;32.00;19.80;;;7.70;99.90;;;;;;5006007;28;20183;-48
2020/12/17 02:08:38;;;;;;;37.73;20.53;;;7.70;99.90;;;;;;4978534;28;20842;-47
2020/12/17 02:11:08;;;;;;;37.37;19.83;;;7.70;99.90;;;;;;4988351;28;20178;-43
2020/12/17 02:13:35;;;;;;;31.87;18.87;;;7.70;99.90;;;;;;4982229;28;20927;-43
2020/12/17 02:16:03;;;;;;;35.97;19.17;;;7.70;99.90;;;;;;4986587;28;20272;-47
2020/12/17 02:18:28;;;;;;;37.63;20.23;;;7.70;99.90;;;;;;4982370;28;20245;-44
2020/12/17 02:20:54;;;;;;;31.27;18.20;;;7.70;99.90;;;;;;4985488;28;20200;-45
2020/12/17 02:23:22;;;;;;;33.03;18.37;;;7.70;99.90;;;;;;4978996;28;20193;-42
2020/12/17 02:25:48;;;;;;;30.40;17.80;;;7.70;99.90;;;;;;4998450;28;20165;-43
2020/12/17 02:28:14;;;;;;;31.37;18.10;;;7.70;99.90;;;;;;4996629;28;20597;-42
2020/12/17 02:30:40;;;;;;;33.23;18.20;;;7.70;99.90;;;;;;5002309;28;20248;-45
2020/12/17 02:33:05;;;;;;;30.90;19.20;;;7.70;99.90;;;;;;5005179;28;20650;-44
2020/12/17 02:35:31;;;;;;;31.13;17.80;;;7.70;99.90;;;;;;5000976;28;20201;-42
2020/12/17 02:37:56;;;;;;;35.33;18.93;;;7.60;99.90;;;;;;4990446;28;20185;-43
2020/12/17 02:40:21;;;;;;;32.87;18.63;;;7.60;99.90;;;;;;4992613;28;20616;-42
2020/12/17 02:42:47;;;;;;;32.13;18.23;;;7.70;99.90;;;;;;4983773;28;20232;-43
2020/12/17 02:45:13;;;;;;;34.20;18.87;;;7.60;99.90;;;;;;4985185;28;20620;-43
2020/12/17 02:47:38;;;;;;;34.27;18.50;;;7.60;99.90;;;;;;4981132;28;20177;-42
2020/12/17 02:50:05;;;;;;;31.97;18.03;;;7.60;99.90;;;;;;4985839;28;20177;-43
2020/12/17 02:52:30;;;;;;;31.90;17.23;;;7.70;99.90;;;;;;4981524;28;20187;-42
2020/12/17 02:54:56;;;;;;;32.40;17.90;;;7.60;99.90;;;;;;4979487;28;20577;-45
2020/12/17 02:57:21;;;;;;;32.93;18.40;;;7.60;99.90;;;;;;4995621;28;20176;-44
2020/12/17 02:59:47;;;;;;;30.87;17.57;;;7.60;99.90;;;;;;4997189;28;20942;-47
2020/12/17 03:02:12;;;;;;;31.83;18.10;;;7.60;99.90;;;;;;5004339;28;20501;-43
2020/12/17 03:04:38;;;;;;;29.90;17.30;;;7.60;99.90;;;;;;5001126;28;20193;-45
2020/12/17 03:07:03;;;;;;;31.93;17.00;;;7.60;99.90;;;;;;5005251;28;20449;-43
2020/12/17 03:09:29;;;;;;;30.47;17.87;;;7.60;99.90;;;;;;4987458;28;20180;-44
2020/12/17 03:11:54;;;;;;;30.90;17.10;;;7.60;99.90;;;;;;4994240;28;20596;-44
2020/12/17 03:14:19;;;;;;;28.50;16.27;;;7.60;99.90;;;;;;4984646;28;20284;-45
2020/12/17 03:16:45;;;;;;;31.03;17.83;;;7.60;99.90;;;;;;4981423;28;20173;-46
2020/12/17 03:19:10;;;;;;;24.77;15.90;;;7.60;99.90;;;;;;4984992;28;20216;-43
2020/12/17 03:21:36;;;;;;;27.37;16.53;;;7.60;99.90;;;;;;4980645;28;20162;-46
2020/12/17 03:24:02;;;;;;;29.70;16.80;;;7.60;99.90;;;;;;4985124;28;20194;-43
2020/12/17 03:26:27;;;;;;;27.10;17.17;;;7.60;99.90;;;;;;4973695;28;20190;-43
2020/12/17 03:28:53;;;;;;;30.57;16.97;;;7.60;99.90;;;;;;4992303;28;20280;-43
2020/12/17 03:31:18;;;;;;;27.27;16.07;;;7.60;99.90;;;;;;4983200;28;20177;-47
2020/12/17 03:33:44;;;;;;;33.53;17.10;;;7.60;99.90;;;;;;4982223;28;20948;-44
2020/12/17 03:36:09;;;;;;;27.73;16.03;;;7.60;99.90;;;;;;4984711;28;20205;-45
2020/12/17 03:38:34;;;;;;;26.10;15.40;;;7.60;99.90;;;;;;4980902;28;20205;-45
2020/12/17 03:41:00;;;;;;;29.13;16.60;;;7.60;99.90;;;;;;4971533;28;20709;-43
2020/12/17 03:43:25;;;;;;;30.90;15.83;;;7.60;99.90;;;;;;4992501;28;20173;-42
2020/12/17 03:45:51;;;;;;;33.47;16.50;;;7.60;99.90;;;;;;5002984;28;20169;-43
2020/12/17 03:48:16;;;;;;;25.37;15.50;;;7.60;99.90;;;;;;5001769;28;20700;-42
2020/12/17 03:50:42;;;;;;;27.63;16.40;;;7.60;99.90;;;;;;5001159;28;20223;-46
2020/12/17 03:53:07;;;;;;;26.83;16.57;;;7.60;99.90;;;;;;5004139;28;20169;-44
2020/12/17 03:55:33;;;;;;;31.27;15.70;;;7.60;99.90;;;;;;5000077;28;20188;-42
2020/12/17 03:57:58;;;;;;;27.80;15.80;;;7.60;99.90;;;;;;4981291;28;20729;-44
2020/12/17 04:00:24;;;;;;;26.10;15.40;;;7.60;99.90;;;;;;4989730;28;20209;-41
2020/12/17 04:02:49;;;;;;;29.40;16.60;;;7.60;99.90;;;;;;4982838;28;20208;-45
2020/12/17 04:05:15;;;;;;;25.33;15.93;;;7.60;99.90;;;;;;4983564;28;20198;-44
2020/12/17 04:07:40;;;;;;;28.13;16.70;;;7.60;99.90;;;;;;4981165;28;20689;-48
2020/12/17 04:10:06;;;;;;;25.80;15.73;;;7.50;99.90;;;;;;4984517;28;20256;-45
2020/12/17 04:12:31;;;;;;;29.57;16.33;;;7.50;99.90;;;;;;4970794;28;20230;-45
2020/12/17 04:14:57;;;;;;;28.33;16.53;;;7.50;99.90;;;;;;4995509;28;20708;-43
2020/12/17 04:17:22;;;;;;;25.20;14.90;;;7.50;99.90;;;;;;5001505;28;20176;-43
2020/12/17 04:19:48;;;;;;;28.60;16.30;;;7.50;99.90;;;;;;5001900;28;20210;-44
2020/12/17 04:22:16;;;;;;;25.20;15.50;;;7.50;99.90;;;;;;5001860;28;20239;-41
2020/12/17 04:24:46;;;;;;;29.17;15.40;;;7.50;99.90;;;;;;5000504;28;20255;-47
2020/12/17 04:27:12;;;;;;;25.73;14.83;;;7.50;99.90;;;;;;5001642;28;20185;-42
2020/12/17 04:29:38;;;;;;;29.03;16.73;;;7.50;99.90;;;;;;4976606;28;20271;-46
2020/12/17 04:32:03;;;;;;;30.73;16.90;;;7.40;99.90;;;;;;4999955;28;20195;-43
2020/12/17 04:34:29;;;;;;;30.93;16.83;;;7.40;99.90;;;;;;4999621;28;20224;-42
2020/12/17 04:36:54;;;;;;;28.53;16.13;;;7.40;99.90;;;;;;5003204;28;20231;-42
2020/12/17 04:39:20;;;;;;;26.60;15.70;;;7.50;99.90;;;;;;5001540;28;20638;-43
2020/12/17 04:41:47;;;;;;;26.80;16.67;;;7.50;99.90;;;;;;5001088;28;20227;-44
2020/12/17 04:44:17;;;;;;;28.80;16.90;;;7.40;99.90;;;;;;4983399;28;20284;-46
2020/12/17 04:46:47;;;;;;;28.77;16.60;;;7.40;99.90;;;;;;4991776;28;20889;-43
2020/12/17 04:49:17;;;;;;;29.27;15.90;;;7.40;99.90;;;;;;5003169;28;20231;-42
2020/12/17 04:51:47;;;;;;;28.43;15.90;;;7.40;99.90;;;;;;5000380;28;20173;-43
2020/12/17 04:54:14;;;;;;;28.93;15.40;;;7.40;99.90;;;;;;5003096;28;20197;-43
2020/12/17 04:56:41;;;;;;;28.80;15.83;;;7.40;99.90;;;;;;4999695;28;20172;-43
2020/12/17 04:59:08;;;;;;;24.47;15.80;;;7.40;99.90;;;;;;4998203;28;20266;-46
2020/12/17 05:01:41;;;;;;;26.77;16.47;;;7.40;99.90;;;;;;4979131;28;20232;-44
2020/12/17 05:04:10;;;;;;;26.93;15.83;;;7.40;99.90;;;;;;5004158;28;20193;-43
2020/12/17 05:06:37;;;;;;;30.60;16.73;;;7.40;99.90;;;;;;5002996;28;20172;-46
2020/12/17 05:09:05;;;;;;;26.53;15.97;;;7.40;99.90;;;;;;5007006;28;20236;-44
2020/12/17 05:11:31;;;;;;;26.77;16.37;;;7.40;99.90;;;;;;5002540;28;20864;-42
2020/12/17 05:13:56;;;;;;;29.50;16.43;;;7.30;99.90;;;;;;5006920;28;20208;-43
2020/12/17 05:16:23;;;;;;;25.90;16.30;;;7.30;99.90;;;;;;4982502;28;20197;-41
2020/12/17 05:18:49;;;;;;;29.80;16.67;;;7.30;99.90;;;;;;4999833;28;20200;-45
2020/12/17 05:21:14;;;;;;;28.03;16.80;;;7.30;99.90;;;;;;5005652;28;20235;-42
2020/12/17 05:23:40;;;;;;;27.17;15.27;;;7.30;99.90;;;;;;5003360;28;20224;-44
2020/12/17 05:26:05;;;;;;;27.23;15.30;;;7.30;99.90;;;;;;5006539;28;20185;-43
2020/12/17 05:28:31;;;;;;;28.40;15.73;;;7.30;99.90;;;;;;4994063;28;20187;-43
2020/12/17 05:30:57;;;;;;;31.70;16.47;;;7.30;99.90;;;;;;4990656;28;20184;-45
2020/12/17 05:33:23;;;;;;;27.23;15.77;;;7.20;99.90;;;;;;4993577;28;20177;-41
2020/12/17 05:35:50;;;;;;;27.73;15.70;;;7.20;99.90;;;;;;4985313;28;20205;-44
2020/12/17 05:38:21;;;;;;;28.30;15.33;;;7.30;99.90;;;;;;4984706;28;20184;-44
2020/12/17 05:40:47;;;;;;;27.47;15.77;;;7.30;99.90;;;;;;4984729;28;20816;-44
2020/12/17 05:43:20;;;;;;;27.70;16.17;;;7.20;99.90;;;;;;4993666;28;20271;-44
2020/12/17 05:45:46;;;;;;;30.70;16.93;;;7.20;99.90;;;;;;5000637;28;20268;-45
2020/12/17 05:48:16;;;;;;;25.90;15.07;;;7.20;99.90;;;;;;4980419;28;20531;-44
2020/12/17 05:50:51;;;;;;;30.60;16.90;;;7.20;99.90;;;;;;4998949;28;20645;-44
2020/12/17 05:53:16;;;;;;;29.67;16.53;;;7.20;99.90;;;;;;5001921;28;20168;-43
2020/12/17 05:55:43;;;;;;;24.43;15.83;;;7.20;99.90;;;;;;5001387;28;20669;-42
2020/12/17 05:58:10;;;;;;;30.90;16.97;;;7.20;99.90;;;;;;4988453;28;20522;-41
2020/12/17 06:00:35;;;;;;;26.73;16.20;;;7.20;99.90;;;;;;4996107;28;20211;-45
2020/12/17 06:03:01;;;;;;;27.50;16.23;;;7.20;99.90;;;;;;4985447;28;20193;-44
2020/12/17 06:05:27;;;;;;;26.77;15.83;;;7.20;99.90;;;;;;4985041;28;20189;-43
2020/12/17 06:07:58;;;;;;;25.13;15.50;;;7.30;99.90;;;;;;5006032;28;20231;-44
2020/12/17 06:10:29;;;;;;;23.27;14.60;;;7.30;99.90;;;;;;4993401;28;20854;-42
2020/12/17 06:12:56;;;;;;;28.40;15.97;;;7.30;99.90;;;;;;4992242;28;20216;-44
2020/12/17 06:15:24;;;;;;;26.27;15.50;;;7.20;99.90;;;;;;4995135;28;20216;-46
2020/12/17 06:17:54;;;;;;;24.17;15.37;;;7.30;99.90;;;;;;4990814;28;20192;-44
2020/12/17 06:20:24;;;;;;;26.50;16.20;;;7.30;99.90;;;;;;4988223;28;20208;-46
2020/12/17 06:22:58;;;;;;;27.07;16.47;;;7.30;99.90;;;;;;4992139;28;20173;-43
2020/12/17 06:25:24;;;;;;;28.57;15.63;;;7.30;99.90;;;;;;4985671;28;20670;-49
2020/12/17 06:27:52;;;;;;;30.53;16.13;;;7.30;99.90;;;;;;4991581;28;20211;-44
2020/12/17 06:30:23;;;;;;;25.30;14.60;;;7.30;99.90;;;;;;4995683;28;20879;-42
2020/12/17 06:32:49;;;;;;;26.53;15.27;;;7.30;99.90;;;;;;4997981;28;20259;-43
2020/12/17 06:35:24;;;;;;;27.57;15.90;;;7.30;99.90;;;;;;4986763;28;20229;-46
2020/12/17 06:37:51;;;;;;;27.73;15.73;;;7.30;99.90;;;;;;5003445;28;20183;-42
2020/12/17 06:40:30;;;;;;;29.10;15.27;;;7.30;99.90;;;;;;5003832;28;20299;-47
2020/12/17 06:42:56;;;;;;;25.93;14.17;;;7.30;99.90;;;;;;5001273;28;20626;-43
2020/12/17 06:45:27;;;;;;;28.43;15.83;;;7.30;99.90;;;;;;5004372;28;20677;-47
2020/12/17 06:47:53;;;;;;;22.90;15.47;;;7.30;99.90;;;;;;5002898;28;20177;-43
2020/12/17 06:50:27;;;;;;;27.03;14.70;;;7.30;99.90;;;;;;4985748;28;20197;-49
2020/12/17 06:53:07;;;;;;;26.27;15.17;;;7.30;99.90;;;;;;4996158;28;20660;-43
2020/12/17 06:55:46;;;;;;;24.20;13.77;;;7.30;99.90;;;;;;5005060;28;20201;-46
2020/12/17 06:58:22;;;;;;;22.97;14.17;;;7.40;99.90;;;;;;5001109;28;20869;-45
2020/12/17 07:00:51;;;;;;;27.47;15.57;;;7.40;99.90;;;;;;4997934;28;20187;-43
2020/12/17 07:03:40;;;;;;;24.60;14.03;;;7.30;99.90;;;;;;5003142;28;20172;-44
2020/12/17 07:06:20;;;;;;;24.97;14.30;;;7.30;99.90;;;;;;4977457;28;20303;-47
2020/12/17 07:08:53;;;;;;;21.90;14.20;;;7.30;99.90;;;;;;4989948;28;20236;-43
2020/12/17 07:11:41;;;;;;;26.33;14.83;;;7.40;99.90;;;;;;4983965;28;20181;-47
2020/12/17 07:14:27;;;;;;;22.60;13.70;;;7.40;99.90;;;;;;4981244;28;20208;-45
2020/12/17 07:16:58;;;;;;;23.70;13.67;;;7.40;99.90;;;;;;4965691;28;20200;-44
2020/12/17 07:19:40;;;;;;;22.83;14.00;;;7.40;99.90;;;;;;4985074;28;20209;-49
2020/12/17 07:22:17;;;;;;;24.03;14.23;;;7.40;99.90;;;;;;4976121;28;20188;-44
2020/12/17 07:24:48;;;;;;;26.77;13.87;;;7.40;99.90;;;;;;5000508;28;21102;-44
2020/12/17 07:27:25;;;;;;;20.90;14.00;;;7.40;99.90;;;;;;4993350;28;20534;-46
2020/12/17 07:29:58;;;;;;;20.73;12.90;;;7.40;99.90;;;;;;5004352;28;20219;-43
2020/12/17 07:32:39;;;;;;;20.83;13.57;;;7.40;99.90;;;;;;5000188;28;20185;-48
2020/12/17 07:35:07;;;;;;;25.57;14.77;;;7.40;99.90;;;;;;5001946;28;20201;-44
2020/12/17 07:37:52;;;;;;;22.83;14.00;;;7.50;99.90;;;;;;4976369;28;20280;-43
2020/12/17 07:40:35;;;;;;;22.97;13.63;;;7.50;99.90;;;;;;4992793;28;20208;-43
2020/12/17 07:43:02;;;;;;;22.53;13.47;;;7.50;99.90;;;;;;5000166;28;20377;-46
2020/12/17 07:45:49;;;;;;;19.33;13.50;;;7.50;99.90;;;;;;4999507;28;20978;-46
2020/12/17 07:48:54;;;;;;;22.23;13.77;;;7.60;99.90;;;;;;4994280;28;20197;-43
2020/12/17 07:51:20;;;;;;;19.67;12.87;;;7.60;99.90;;;;;;4983085;28;20218;-45
2020/12/17 07:53:47;;;;;;;23.50;13.37;;;7.60;99.90;;;;;;4992405;28;20262;-44
2020/12/17 07:56:14;;;;;;;21.27;12.30;;;7.70;99.90;;;;;;5001635;28;20177;-44
2020/12/17 07:58:41;;;;;;;20.90;12.63;;;7.70;99.90;;;;;;4988628;28;20221;-44
2020/12/17 08:01:08;;;;;;;22.07;12.97;;;7.70;99.90;;;;;;4992216;28;20181;-43
2020/12/17 08:03:40;;;;;;;20.70;13.00;;;7.70;99.90;;;;;;4993711;28;20220;-46
2020/12/17 08:06:07;;;;;;;19.60;11.83;;;7.70;99.90;;;;;;5000949;28;20255;-42
2020/12/17 08:08:33;;;;;;;18.73;12.30;;;7.80;99.90;;;;;;4978428;28;20208;-46
2020/12/17 08:11:03;;;;;;;19.70;12.97;;;7.80;99.90;;;;;;4988678;28;20220;-44
2020/12/17 08:13:29;;;;;;;19.57;11.70;;;7.80;99.90;;;;;;4980282;28;20252;-50
2020/12/17 08:15:55;;;;;;;18.57;12.87;;;7.80;99.90;;;;;;4984436;28;20244;-44
2020/12/17 08:18:45;;;;;;;19.77;11.93;;;7.80;99.90;;;;;;4993870;28;20235;-44
2020/12/17 08:21:12;;;;;;;22.07;12.67;;;7.70;99.90;;;;;;4995408;28;20260;-43
2020/12/17 08:23:39;;;;;;;20.97;12.23;;;7.80;99.90;;;;;;4982619;28;20212;-46
2020/12/17 08:26:10;;;;;;;20.97;12.13;;;7.70;99.90;;;;;;5003095;28;20213;-45
2020/12/17 08:28:37;;;;;;;20.67;13.27;;;7.80;99.90;;;;;;5001149;28;20235;-43
2020/12/17 08:31:08;;;;;;;18.43;12.50;;;7.80;99.90;;;;;;5002081;28;20267;-44
2020/12/17 08:33:42;;;;;;;22.17;13.13;;;7.80;99.90;;;;;;4990123;28;20744;-47
2020/12/17 08:36:11;;;;;;;21.63;12.63;;;7.80;99.90;;;;;;4998764;28;20173;-46
2020/12/17 08:38:37;;;;;;;18.07;12.67;;;7.80;99.90;;;;;;4985525;28;20205;-44
2020/12/17 08:41:05;;;;;;;21.80;12.27;;;7.80;99.90;;;;;;4999301;28;20200;-43
2020/12/17 08:43:42;;;;;;;21.33;13.37;;;7.80;99.90;;;;;;4987114;28;20964;-44
2020/12/17 08:46:13;;;;;;;19.33;12.77;;;7.80;99.90;;;;;;4999643;28;20189;-48
2020/12/17 08:48:39;;;;;;;19.50;11.43;;;7.80;99.90;;;;;;4993098;28;20239;-47
2020/12/17 08:51:06;;;;;;;16.80;11.37;;;7.80;99.90;;;;;;5004991;28;20177;-43
2020/12/17 08:53:35;;;;;;;17.67;11.83;;;7.80;99.90;;;;;;4969433;28;20197;-47
2020/12/17 08:56:14;;;;;;;18.03;11.50;;;7.80;99.90;;;;;;4991830;28;20185;-48
2020/12/17 08:58:44;;;;;;;20.50;12.43;;;7.90;99.90;;;;;;4993399;28;20235;-49
2020/12/17 09:01:17;;;;;;;21.50;12.27;;;7.80;99.90;;;;;;4996025;28;20173;-43
2020/12/17 09:03:44;;;;;;;17.80;11.80;;;7.90;99.90;;;;;;4999092;28;21030;-46
2020/12/17 09:06:10;;;;;;;18.90;12.37;;;7.90;99.90;;;;;;4996137;28;20166;-44
2020/12/17 09:08:36;;;;;;;19.53;12.50;;;7.90;99.90;;;;;;4977498;28;20204;-48
2020/12/17 09:11:01;;;;;;;16.93;11.40;;;7.90;99.90;;;;;;4997444;28;20170;-45
2020/12/17 09:13:28;;;;;;;17.87;11.80;;;7.90;99.90;;;;;;4982218;28;20799;-46
2020/12/17 09:15:59;;;;;;;16.47;11.50;;;7.90;99.90;;;;;;4986940;28;20220;-46
2020/12/17 09:18:26;;;;;;;18.57;11.60;;;8.00;99.90;;;;;;4983420;28;20866;-47
2020/12/17 09:21:09;;;;;;;22.03;12.10;;;8.00;99.90;;;;;;4996567;28;20605;-47
2020/12/17 09:23:35;;;;;;;19.60;12.70;;;8.00;99.90;;;;;;4972167;28;20538;-45
2020/12/17 09:26:11;;;;;;;16.87;11.73;;;8.00;99.90;;;;;;4995159;28;20624;-48
2020/12/17 09:28:37;;;;;;;17.47;12.03;;;8.00;99.90;;;;;;4984755;28;20267;-47
2020/12/17 09:31:02;;;;;;;15.33;11.03;;;8.00;99.90;;;;;;4987064;28;20205;-45
2020/12/17 09:33:28;;;;;;;20.30;12.00;;;8.10;99.90;;;;;;4982950;28;20181;-45
2020/12/17 09:35:53;;;;;;;14.90;11.03;;;8.00;99.90;;;;;;5001503;28;20259;-45
2020/12/17 09:38:20;;;;;;;17.80;11.47;;;8.10;99.90;;;;;;4985239;28;20204;-41
2020/12/17 09:40:52;;;;;;;19.43;11.77;;;8.10;99.90;;;;;;4979308;28;20212;-40
2020/12/17 09:43:17;;;;;;;19.77;12.60;;;8.10;99.90;;;;;;4991910;28;20240;-43
2020/12/17 09:45:53;;;;;;;16.77;11.73;;;8.10;99.90;;;;;;4984891;28;20817;-49
2020/12/17 09:48:24;;;;;;;18.93;11.07;;;8.10;99.90;;;;;;4983732;28;20192;-43
2020/12/17 09:51:11;;;;;;;17.97;12.63;;;8.10;99.90;;;;;;4988014;28;20177;-47
2020/12/17 09:53:40;;;;;;;16.00;11.33;;;8.10;99.90;;;;;;5003790;28;20177;-45
2020/12/17 09:56:18;;;;;;;17.40;11.60;;;8.10;99.90;;;;;;4984927;28;20188;-46
2020/12/17 09:58:45;;;;;;;18.63;12.77;;;8.10;99.90;;;;;;4998740;28;20175;-44
2020/12/17 10:01:11;;;;;;;17.90;11.50;;;8.10;99.90;;;;;;5004490;28;20180;-44
2020/12/17 10:03:37;;;;;;;21.10;12.57;;;8.20;99.90;;;;;;4990279;28;20205;-48
2020/12/17 10:06:04;;;;;;;20.70;12.60;;;8.20;99.90;;;;;;4989242;28;20185;-44
2020/12/17 10:08:29;;;;;;;19.23;12.00;;;8.20;99.90;;;;;;4989246;28;20189;-44
2020/12/17 10:10:55;;;;;;;19.53;12.70;;;8.20;99.90;;;;;;4984493;28;20562;-43
2020/12/17 10:13:20;;;;;;;22.30;12.47;;;8.20;99.90;;;;;;4992714;28;20295;-45
2020/12/17 10:15:46;;;;;;;20.93;12.17;;;8.20;99.90;;;;;;4995637;28;20184;-43
2020/12/17 10:18:11;;;;;;;18.60;12.03;;;8.30;99.90;;;;;;4999327;28;20231;-44
2020/12/17 10:20:37;;;;;;;18.47;11.90;;;8.30;99.90;;;;;;4996819;28;20205;-45
2020/12/17 10:23:03;;;;;;;20.07;12.47;;;8.30;99.90;;;;;;4995763;28;20701;-44
2020/12/17 10:25:28;;;;;;;17.90;11.43;;;8.40;99.90;;;;;;4976513;28;20359;-44
2020/12/17 10:27:59;;;;;;;20.03;11.40;;;8.40;99.90;;;;;;4991141;28;20200;-43
2020/12/17 10:30:25;;;;;;;17.80;12.07;;;8.50;99.90;;;;;;4986346;28;20174;-43
2020/12/17 10:32:51;;;;;;;18.23;12.53;;;8.50;99.90;;;;;;4985972;28;20315;-48
2020/12/17 10:35:16;;;;;;;17.60;11.47;;;8.50;99.90;;;;;;4982044;28;20189;-42
2020/12/17 10:37:42;;;;;;;18.77;11.50;;;8.50;99.90;;;;;;4998630;28;20208;-42
2020/12/17 10:40:10;;;;;;;19.00;12.37;;;8.60;99.90;;;;;;4988931;28;20220;-42
2020/12/17 10:42:37;;;;;;;16.70;11.27;;;8.60;99.90;;;;;;4989727;28;20189;-46
2020/12/17 10:45:04;;;;;;;17.63;11.50;;;8.70;99.90;;;;;;4996147;28;20210;-47
2020/12/17 10:47:30;;;;;;;20.17;13.40;;;8.70;99.90;;;;;;4989134;28;20172;-43
2020/12/17 10:49:55;;;;;;;21.50;12.00;;;8.80;99.90;;;;;;4995776;28;20725;-43
2020/12/17 10:52:21;;;;;;;16.10;11.63;;;8.80;99.90;;;;;;4980244;28;20189;-44
2020/12/17 10:54:46;;;;;;;20.73;12.67;;;8.80;99.90;;;;;;5000453;28;20212;-45
2020/12/17 10:57:12;;;;;;;23.03;12.63;;;8.80;99.90;;;;;;4980312;28;20255;-43
2020/12/17 10:59:37;;;;;;;18.10;12.33;;;8.90;99.90;;;;;;4996756;28;20201;-43
2020/12/17 11:02:03;;;;;;;24.30;13.17;;;8.90;99.90;;;;;;5003129;28;20242;-46
2020/12/17 11:04:28;;;;;;;19.33;12.50;;;9.00;99.90;;;;;;4995157;28;20276;-43
2020/12/17 11:06:57;;;;;;;20.07;11.53;;;9.00;99.90;;;;;;4997012;28;20169;-43
2020/12/17 11:09:24;;;;;;;17.13;11.40;;;9.10;99.90;;;;;;4988054;28;20235;-43
2020/12/17 11:11:51;;;;;;;22.70;13.03;;;9.10;99.90;;;;;;5000495;28;20193;-48
2020/12/17 11:14:17;;;;;;;17.50;12.67;;;9.10;99.90;;;;;;4976767;28;20251;-42
2020/12/17 11:16:42;;;;;;;21.37;14.10;;;9.20;99.90;;;;;;4998071;28;20652;-45
2020/12/17 11:19:08;;;;;;;24.10;13.10;;;9.20;99.90;;;;;;4994141;28;20196;-43
2020/12/17 11:21:33;;;;;;;20.10;12.63;;;9.30;99.90;;;;;;5003064;28;20864;-45
2020/12/17 11:23:59;;;;;;;20.63;12.53;;;9.30;99.90;;;;;;5003936;28;20189;-42
2020/12/17 11:26:24;;;;;;;25.93;13.67;;;9.30;99.90;;;;;;4992995;28;20189;-45
2020/12/17 11:28:50;;;;;;;16.30;12.13;;;9.30;99.90;;;;;;4982223;28;20211;-45
2020/12/17 11:31:15;;;;;;;21.57;12.37;;;9.30;99.90;;;;;;4992262;28;20176;-41
2020/12/17 11:33:41;;;;;;;17.40;11.70;;;9.30;99.90;;;;;;5004710;28;20262;-43
2020/12/17 11:36:06;;;;;;;24.03;14.50;;;9.30;99.90;;;;;;5002552;28;20260;-44
2020/12/17 11:38:32;;;;;;;17.97;12.17;;;9.30;99.90;;;;;;5002661;28;20303;-48
2020/12/17 11:40:57;;;;;;;20.90;13.60;;;9.30;99.90;;;;;;4999427;28;20858;-41
2020/12/17 11:43:23;;;;;;;17.40;12.63;;;9.30;99.90;;;;;;4974314;28;20919;-43
2020/12/17 11:45:48;;;;;;;24.30;14.33;;;9.30;99.90;;;;;;4996243;28;20196;-44
2020/12/17 11:48:14;;;;;;;27.77;12.83;;;9.30;99.90;;;;;;4992342;28;20184;-44
2020/12/17 11:50:39;;;;;;;31.13;13.87;;;9.30;99.90;;;;;;5003968;28;20247;-42
2020/12/17 11:53:05;;;;;;;20.20;12.57;;;9.30;99.90;;;;;;5002088;28;20634;-42
2020/12/17 11:55:30;;;;;;;17.33;11.53;;;9.30;99.90;;;;;;4997730;28;20582;-43
2020/12/17 11:57:56;;;;;;;21.60;13.20;;;9.30;99.90;;;;;;4999749;28;20684;-44
2020/12/17 12:00:21;;;;;;;18.57;12.50;;;9.20;99.90;;;;;;4958951;28;20947;-42
2020/12/17 12:02:49;;;;;;;15.03;11.73;;;9.30;99.90;;;;;;4983722;28;20220;-42
2020/12/17 12:05:17;;;;;;;18.77;13.70;;;9.30;99.90;;;;;;4991521;28;20193;-45
2020/12/17 12:07:42;;;;;;;19.03;12.07;;;9.30;99.90;;;;;;4985797;28;20207;-41
2020/12/17 12:10:08;;;;;;;18.73;13.37;;;9.30;99.90;;;;;;5000180;28;20263;-47
2020/12/17 12:12:34;;;;;;;22.13;14.03;;;9.30;99.90;;;;;;4999693;28;20193;-41
2020/12/17 12:14:59;;;;;;;18.27;12.80;;;9.30;99.90;;;;;;4973792;28;20216;-44
2020/12/17 12:17:25;;;;;;;19.77;12.50;;;9.30;99.90;;;;;;4988485;28;20185;-46
2020/12/17 12:19:50;;;;;;;17.43;11.40;;;9.30;99.90;;;;;;4997601;28;20247;-42
2020/12/17 12:22:16;;;;;;;18.17;10.03;;;9.30;99.90;;;;;;4996090;28;20173;-41
2020/12/17 12:24:42;;;;;;;20.40;13.67;;;9.30;99.90;;;;;;4988423;28;20209;-43
2020/12/17 12:27:08;;;;;;;21.70;14.90;;;9.30;99.90;;;;;;4984445;28;20170;-45
2020/12/17 12:29:33;;;;;;;16.33;10.50;;;9.30;99.90;;;;;;4988645;28;20218;-45
2020/12/17 12:31:59;;;;;;;16.13;11.70;;;9.30;99.90;;;;;;5001014;28;20239;-44
2020/12/17 12:34:25;;;;;;;16.00;10.90;;;9.30;99.90;;;;;;4994904;28;20185;-42
2020/12/17 12:36:55;;;;;;;10.87;8.30;;;9.30;99.90;;;;;;5003511;28;20597;-43
2020/12/17 12:39:21;;;;;;;12.13;8.77;;;9.40;99.90;;;;;;4995320;28;20960;-44
2020/12/17 12:41:48;;;;;;;9.80;8.30;;;9.40;99.90;;;;;;4998042;28;20187;-43